Elcho, Wisconsin
Current Conditions -  °F | °C
As of 6:53 AM on Thursday 23 Oct 2014 (Local Time) from KRHI Reporting Station
Light Rain Light Rain  
Wind Chill: 39°   Ceiling: 8000
Heat Index: 43°   Visibility: 8mi
Dew Point: 40°   Wind: 7mph
Humidity: 89%   Direction: 170°S
Pressure: 30.08"   Gusts: NA
Location:  45.44°N, 89.18°W
Report Text: KRHI 231153Z AUTO 17006KT 8SM -RA FEW042 SCT065 OVC080 06/04 A3008 RMK AO2 SLP197 P0001 60001 7//// T00610044 10078 20050 58007
Loading
Personal Weather Stations






























Interactive Weather Map New forecast layout! Learn more

10-Day Weather Forecast

Advertisements
Track Severe Weather on mobile